createdAt,value
2022-12-18T00:01:17.983Z,91.45
2022-12-18T00:03:46.959Z,91.47
2022-12-18T00:06:15.547Z,91.12
2022-12-18T00:08:45.996Z,91.54
2022-12-18T00:11:16.558Z,91.03
2022-12-18T00:13:44.574Z,90.97
2022-12-18T00:16:14.033Z,90.68
2022-12-18T00:18:42.523Z,90.93
2022-12-18T00:21:12.841Z,91.08
2022-12-18T00:23:42.113Z,91.64
2022-12-18T00:26:19.185Z,91.25
2022-12-18T00:28:47.464Z,91.78
2022-12-18T00:31:17.790Z,91.30
2022-12-18T00:33:46.048Z,91.40
2022-12-18T00:36:15.785Z,91.48
2022-12-18T00:38:43.716Z,91.96
2022-12-18T00:41:14.284Z,91.66
2022-12-18T00:43:41.344Z,91.40
2022-12-18T00:46:09.304Z,91.55
2022-12-18T00:48:37.333Z,91.52
2022-12-18T00:51:04.994Z,91.09
2022-12-18T00:53:32.653Z,91.16
2022-12-18T00:56:00.280Z,91.65
2022-12-18T00:58:29.259Z,91.48
2022-12-18T01:00:56.898Z,90.95
2022-12-18T01:03:24.602Z,91.59
2022-12-18T01:05:52.243Z,91.63
2022-12-18T01:08:19.850Z,91.35
2022-12-18T01:10:47.501Z,91.46
2022-12-18T01:13:15.196Z,91.50
2022-12-18T01:15:50.214Z,91.58
2022-12-18T01:18:17.892Z,91.43
2022-12-18T01:20:45.751Z,91.45
2022-12-18T01:23:13.416Z,91.74
2022-12-18T01:25:41.115Z,91.54
2022-12-18T01:28:08.763Z,91.89
2022-12-18T01:30:36.505Z,91.87
2022-12-18T01:33:06.419Z,90.92
2022-12-18T01:35:34.092Z,92.05
2022-12-18T01:38:01.746Z,91.25
2022-12-18T01:40:29.419Z,91.68
2022-12-18T01:42:57.008Z,91.24
2022-12-18T01:45:28.882Z,91.31
2022-12-18T01:47:58.399Z,91.04
2022-12-18T01:50:32.469Z,91.17
2022-12-18T01:53:04.169Z,90.79
2022-12-18T01:55:34.302Z,91.17
2022-12-18T01:58:03.051Z,91.29
2022-12-18T02:00:30.908Z,91.30
2022-12-18T02:02:58.751Z,91.04
2022-12-18T02:05:38.983Z,91.51
2022-12-18T02:08:12.795Z,90.76
2022-12-18T02:10:48.689Z,91.13
2022-12-18T02:13:22.675Z,90.87
2022-12-18T02:15:59.272Z,90.78
2022-12-18T02:18:33.760Z,91.15
2022-12-18T02:21:12.286Z,91.65
2022-12-18T02:23:51.835Z,91.29
2022-12-18T02:26:25.037Z,91.20
2022-12-18T02:28:56.651Z,90.73
2022-12-18T02:31:27.387Z,90.91
2022-12-18T02:33:58.518Z,90.79
2022-12-18T02:36:28.533Z,91.22
2022-12-18T02:38:57.933Z,90.51
2022-12-18T02:41:27.721Z,91.42
2022-12-18T02:43:58.666Z,90.85
2022-12-18T02:46:32.562Z,90.64
2022-12-18T02:49:06.920Z,90.82
2022-12-18T02:51:42.428Z,91.32
2022-12-18T02:54:15.682Z,91.10
2022-12-18T02:56:52.432Z,90.95
2022-12-18T02:59:26.498Z,90.81
2022-12-18T03:01:59.016Z,90.59
2022-12-18T03:04:29.247Z,90.36
2022-12-18T03:06:59.613Z,91.24
2022-12-18T03:09:33.907Z,90.52
2022-12-18T03:12:24.723Z,91.25
2022-12-18T03:14:56.845Z,90.99
2022-12-18T03:17:27.524Z,90.71
2022-12-18T03:19:58.637Z,90.84
2022-12-18T03:22:30.852Z,90.91
2022-12-18T03:24:59.366Z,90.88
2022-12-18T03:27:31.338Z,91.17
2022-12-18T03:30:08.300Z,91.20
2022-12-18T03:32:41.844Z,90.09
2022-12-18T03:35:12.796Z,90.91
2022-12-18T03:37:40.745Z,90.83
2022-12-18T03:40:09.365Z,90.35
2022-12-18T03:42:48.971Z,90.85
2022-12-18T03:45:23.742Z,90.08
2022-12-18T03:48:00.356Z,90.64
2022-12-18T03:50:35.560Z,90.58
2022-12-18T03:53:14.752Z,90.24
2022-12-18T03:55:44.500Z,91.22
2022-12-18T03:58:19.375Z,90.81
2022-12-18T04:00:50.008Z,90.54
2022-12-18T04:03:26.051Z,90.59
2022-12-18T04:05:56.284Z,90.24
2022-12-18T04:08:25.280Z,90.67
2022-12-18T04:10:53.000Z,90.59
2022-12-18T04:13:25.520Z,90.61
2022-12-18T04:15:53.360Z,90.26
2022-12-18T04:18:21.128Z,90.55
2022-12-18T04:20:48.807Z,90.54
2022-12-18T04:23:16.632Z,90.42
2022-12-18T04:25:44.304Z,90.60
2022-12-18T04:28:11.990Z,90.64
2022-12-18T04:30:41.099Z,90.59
2022-12-18T04:33:11.079Z,90.91
2022-12-18T04:35:38.763Z,90.25
2022-12-18T04:38:07.504Z,90.31
2022-12-18T04:40:35.147Z,90.10
2022-12-18T04:43:03.020Z,90.49
2022-12-18T04:45:31.571Z,90.25
2022-12-18T04:48:00.697Z,90.39
2022-12-18T04:50:29.135Z,90.07
2022-12-18T04:52:56.892Z,90.17
2022-12-18T04:55:27.647Z,90.26
2022-12-18T04:57:55.684Z,90.54
2022-12-18T05:00:24.008Z,90.33
2022-12-18T05:02:51.812Z,90.27
2022-12-18T05:05:20.984Z,90.15
2022-12-18T05:07:48.658Z,89.77
2022-12-18T05:10:16.377Z,89.93
2022-12-18T05:12:57.991Z,89.91
2022-12-18T05:15:26.155Z,90.01
2022-12-18T05:17:53.820Z,89.62
2022-12-18T05:20:22.830Z,89.98
2022-12-18T05:22:50.602Z,90.25
2022-12-18T05:25:18.429Z,89.98
2022-12-18T05:27:46.992Z,89.63
2022-12-18T05:30:15.486Z,90.09
2022-12-18T05:32:43.769Z,89.86
2022-12-18T05:35:12.881Z,90.22
2022-12-18T05:37:43.514Z,89.72
2022-12-18T05:40:13.154Z,89.91
2022-12-18T05:42:40.926Z,89.95
2022-12-18T05:45:09.342Z,89.63
2022-12-18T05:47:37.053Z,89.71
2022-12-18T05:50:05.192Z,89.80
2022-12-18T05:52:32.867Z,89.55
2022-12-18T05:55:01.864Z,89.62
2022-12-18T05:57:29.509Z,89.45
2022-12-18T05:59:57.128Z,89.92
2022-12-18T06:02:24.910Z,90.01
2022-12-18T06:04:52.669Z,90.23
2022-12-18T06:07:20.315Z,89.52
2022-12-18T06:09:47.952Z,90.32
2022-12-18T06:12:16.913Z,89.87
2022-12-18T06:14:44.562Z,90.08
2022-12-18T06:17:12.293Z,89.83
2022-12-18T06:19:40.064Z,89.87
2022-12-18T06:22:07.721Z,90.02
2022-12-18T06:24:35.360Z,90.31
2022-12-18T06:27:03.287Z,89.71
2022-12-18T06:29:32.296Z,90.38
2022-12-18T06:31:59.954Z,90.06
2022-12-18T06:34:27.859Z,89.78
2022-12-18T06:36:55.472Z,90.45
2022-12-18T06:39:23.151Z,90.11
2022-12-18T06:41:50.836Z,89.84
2022-12-18T06:44:18.503Z,90.18
2022-12-18T06:46:47.780Z,90.28
2022-12-18T06:49:16.878Z,90.22
2022-12-18T06:51:44.560Z,90.13
2022-12-18T06:54:12.300Z,90.21
2022-12-18T06:56:39.893Z,90.39
2022-12-18T06:59:07.602Z,90.18
2022-12-18T07:01:35.406Z,90.49
2022-12-18T07:04:04.536Z,90.49
2022-12-18T07:06:32.244Z,90.41
2022-12-18T07:08:59.947Z,90.22
2022-12-18T07:11:27.669Z,89.90
2022-12-18T07:13:55.488Z,90.11
2022-12-18T07:16:26.250Z,90.43
2022-12-18T07:18:54.171Z,89.99
2022-12-18T07:21:24.084Z,89.53
2022-12-18T07:23:51.966Z,90.37
2022-12-18T07:26:22.219Z,90.25
2022-12-18T07:28:50.291Z,90.33
2022-12-18T07:31:20.270Z,89.78
2022-12-18T07:33:49.681Z,90.21
2022-12-18T07:36:17.451Z,90.41
2022-12-18T07:38:49.084Z,90.00
2022-12-18T07:41:16.881Z,90.47
2022-12-18T07:43:44.920Z,90.19
2022-12-18T07:46:14.656Z,90.08
2022-12-18T07:48:42.825Z,90.35
2022-12-18T07:51:12.460Z,90.18
2022-12-18T07:53:40.652Z,90.11
2022-12-18T07:56:29.085Z,90.20
2022-12-18T07:58:58.228Z,90.25
2022-12-18T08:01:26.360Z,90.17
2022-12-18T08:03:54.187Z,90.01
2022-12-18T08:06:23.803Z,90.55
2022-12-18T08:08:53.283Z,89.92
2022-12-18T08:11:22.738Z,90.62
2022-12-18T08:13:50.517Z,90.58
2022-12-18T08:16:18.734Z,90.19
2022-12-18T08:18:47.447Z,90.39
2022-12-18T08:21:17.142Z,90.27
2022-12-18T08:23:45.945Z,90.26
2022-12-18T08:26:14.248Z,90.23
2022-12-18T08:28:44.129Z,89.92
2022-12-18T08:31:12.384Z,90.22
2022-12-18T08:33:41.475Z,90.24
2022-12-18T08:36:11.491Z,90.50
2022-12-18T08:38:39.205Z,90.00
2022-12-18T08:41:09.656Z,90.79
2022-12-18T08:43:55.083Z,90.39
2022-12-18T08:46:25.944Z,90.09
2022-12-18T08:48:55.397Z,90.01
2022-12-18T08:51:23.217Z,90.19
2022-12-18T08:53:50.859Z,90.08
2022-12-18T08:56:18.679Z,89.91
2022-12-18T08:58:46.361Z,90.22
2022-12-18T09:01:15.176Z,90.57
2022-12-18T09:03:44.705Z,90.50
2022-12-18T09:06:16.641Z,90.28
2022-12-18T09:08:44.741Z,90.22
2022-12-18T09:11:16.800Z,90.25
2022-12-18T09:13:44.503Z,90.13
2022-12-18T09:16:12.188Z,89.77
2022-12-18T09:18:40.167Z,90.49
2022-12-18T09:21:14.014Z,89.87
2022-12-18T09:23:42.300Z,89.63
2022-12-18T09:26:10.228Z,89.91
2022-12-18T09:28:38.328Z,89.86
2022-12-18T09:31:08.862Z,89.70
2022-12-18T09:33:37.044Z,90.29
2022-12-18T09:36:07.592Z,89.63
2022-12-18T09:38:37.606Z,89.38
2022-12-18T09:41:19.997Z,89.20
2022-12-18T09:43:52.206Z,89.81
2022-12-18T09:46:28.171Z,89.55
2022-12-18T09:49:01.619Z,89.71
2022-12-18T09:51:32.217Z,89.19
2022-12-18T09:54:04.473Z,89.46
2022-12-18T09:56:37.620Z,89.29
2022-12-18T09:59:06.589Z,89.63
2022-12-18T10:01:43.096Z,89.78
2022-12-18T10:04:12.482Z,89.56
2022-12-18T10:06:48.276Z,89.04
2022-12-18T10:09:29.285Z,89.01
2022-12-18T10:12:06.387Z,88.62
2022-12-18T10:14:52.181Z,88.11
2022-12-18T10:17:27.235Z,87.98
2022-12-18T10:19:59.965Z,88.14
2022-12-18T10:22:41.304Z,88.39
2022-12-18T10:25:19.658Z,88.24
2022-12-18T10:27:47.429Z,88.38
2022-12-18T10:30:22.976Z,87.83
2022-12-18T10:32:50.533Z,87.40
2022-12-18T10:35:22.483Z,87.23
2022-12-18T10:38:08.972Z,87.39
2022-12-18T10:40:51.574Z,87.26
2022-12-18T10:43:23.971Z,87.03
2022-12-18T10:46:16.640Z,86.94
2022-12-18T10:48:54.791Z,87.32
2022-12-18T10:51:25.409Z,86.85
2022-12-18T10:53:57.833Z,86.99
2022-12-18T10:56:29.926Z,87.29
2022-12-18T10:59:00.507Z,87.34
2022-12-18T11:01:29.371Z,87.21
2022-12-18T11:04:10.504Z,87.24
2022-12-18T11:06:55.900Z,86.74
2022-12-18T11:09:25.157Z,87.00
2022-12-18T11:11:55.688Z,86.76
2022-12-18T11:14:25.325Z,86.97
2022-12-18T11:17:25.360Z,86.61
2022-12-18T11:19:45.342Z,86.53
2022-12-18T11:22:22.345Z,86.09
2022-12-18T11:25:30.365Z,86.38
2022-12-18T11:27:54.587Z,86.34
2022-12-18T11:30:27.680Z,85.78
2022-12-18T11:32:59.637Z,85.67
2022-12-18T11:35:40.043Z,85.72
2022-12-18T11:38:19.384Z,86.09
2022-12-18T11:40:53.736Z,85.89
2022-12-18T11:43:29.783Z,85.45
2022-12-18T11:46:08.265Z,85.27
2022-12-18T11:48:47.241Z,85.55
2022-12-18T11:51:27.053Z,85.46
2022-12-18T11:53:54.996Z,85.40
2022-12-18T11:56:33.909Z,85.26
2022-12-18T11:59:17.994Z,85.29
2022-12-18T12:01:52.937Z,85.50
2022-12-18T12:05:03.191Z,85.45
2022-12-18T12:07:44.729Z,84.94
2022-12-18T12:10:25.292Z,84.36
2022-12-18T12:13:11.655Z,84.95
2022-12-18T12:15:52.406Z,85.04
2022-12-18T12:18:31.118Z,84.07
2022-12-18T12:21:09.322Z,84.58
2022-12-18T12:23:43.754Z,84.26
2022-12-18T12:26:17.364Z,83.98
2022-12-18T12:29:09.162Z,84.03
2022-12-18T12:32:02.851Z,84.49
2022-12-18T12:34:39.013Z,84.65
2022-12-18T12:37:19.534Z,84.57
2022-12-18T12:39:49.209Z,84.14
2022-12-18T12:42:39.475Z,84.68
2022-12-18T12:45:16.280Z,84.66
2022-12-18T12:47:47.884Z,83.90
2022-12-18T12:50:19.565Z,84.19
2022-12-18T12:52:49.559Z,84.49
2022-12-18T12:55:21.384Z,84.26
2022-12-18T12:57:59.863Z,83.44
2022-12-18T13:00:33.313Z,83.24
2022-12-18T13:03:10.437Z,83.57
2022-12-18T13:05:46.104Z,84.04
2022-12-18T13:08:26.376Z,83.99
2022-12-18T13:11:16.991Z,84.20
2022-12-18T13:13:51.438Z,83.65
2022-12-18T13:16:21.992Z,84.19
2022-12-18T13:18:53.388Z,83.89
2022-12-18T13:21:25.623Z,83.77
2022-12-18T13:23:53.528Z,84.01
2022-12-18T13:26:35.510Z,84.68
2022-12-18T13:29:07.094Z,83.09
2022-12-18T13:32:15.831Z,82.54
2022-12-18T13:34:48.751Z,83.86
2022-12-18T13:37:52.937Z,83.43
2022-12-18T13:40:56.347Z,84.03
2022-12-18T13:43:40.411Z,84.37
2022-12-18T13:46:23.697Z,83.98
2022-12-18T13:48:55.784Z,84.64
2022-12-18T13:51:26.895Z,84.29
2022-12-18T13:53:59.475Z,84.15
2022-12-18T13:56:29.541Z,84.45
2022-12-18T13:59:15.475Z,84.55
2022-12-18T14:01:49.274Z,84.20
2022-12-18T14:04:30.498Z,84.21
2022-12-18T14:07:03.757Z,83.64
2022-12-18T14:09:33.948Z,84.30
2022-12-18T14:12:19.711Z,84.00
2022-12-18T14:14:49.836Z,83.68
2022-12-18T14:17:21.342Z,81.83
2022-12-18T14:19:52.061Z,83.50
2022-12-18T14:22:23.008Z,83.90
2022-12-18T14:25:10.641Z,83.23
2022-12-18T14:27:40.064Z,83.87
2022-12-18T14:30:26.760Z,83.89
2022-12-18T14:33:02.665Z,83.29
2022-12-18T14:35:30.670Z,82.63
2022-12-18T14:38:23.300Z,82.91
2022-12-18T14:40:55.565Z,82.62
2022-12-18T14:43:23.836Z,82.24
2022-12-18T14:45:52.604Z,82.28
2022-12-18T14:48:23.350Z,82.75
2022-12-18T14:51:00.632Z,82.60
2022-12-18T14:53:41.973Z,81.56
2022-12-18T14:56:19.584Z,82.92
2022-12-18T14:59:09.631Z,81.35
2022-12-18T15:01:39.827Z,81.31
2022-12-18T15:04:27.363Z,81.50
2022-12-18T15:07:06.516Z,82.54
2022-12-18T15:09:35.575Z,81.04
2022-12-18T15:12:03.796Z,81.38
2022-12-18T15:14:42.068Z,82.12
2022-12-18T15:17:19.959Z,81.87
2022-12-18T15:19:49.908Z,81.52
2022-12-18T15:22:28.218Z,81.66
2022-12-18T15:24:58.667Z,81.87
2022-12-18T15:27:30.299Z,81.35
2022-12-18T15:30:24.040Z,80.58
2022-12-18T15:32:52.783Z,80.83
2022-12-18T15:35:23.182Z,81.56
2022-12-18T15:37:51.839Z,81.71
2022-12-18T15:40:23.197Z,81.66
2022-12-18T15:43:10.740Z,81.46
2022-12-18T15:45:38.359Z,81.55
2022-12-18T15:48:17.694Z,79.31
2022-12-18T15:50:45.379Z,81.16
2022-12-18T15:53:13.060Z,80.97
2022-12-18T15:56:01.304Z,80.87
2022-12-18T15:58:29.501Z,81.09
2022-12-18T16:01:00.489Z,80.67
2022-12-18T16:03:28.517Z,81.52
2022-12-18T16:05:56.224Z,81.72
2022-12-18T16:08:24.639Z,81.96
2022-12-18T16:10:53.649Z,81.36
2022-12-18T16:13:22.209Z,81.24
2022-12-18T16:15:49.965Z,81.59
2022-12-18T16:18:17.632Z,81.36
2022-12-18T16:20:45.312Z,81.14
2022-12-18T16:23:12.968Z,81.66
2022-12-18T16:25:40.644Z,81.46
2022-12-18T16:28:09.630Z,81.53
2022-12-18T16:30:38.625Z,81.73
2022-12-18T16:33:07.708Z,80.83
2022-12-18T16:35:38.111Z,80.76
2022-12-18T16:38:05.864Z,80.77
2022-12-18T16:40:34.340Z,81.55
2022-12-18T16:43:02.004Z,80.96
2022-12-18T16:45:34.105Z,81.01
2022-12-18T16:48:01.912Z,80.52
2022-12-18T16:50:29.519Z,80.39
2022-12-18T16:52:57.127Z,78.88
2022-12-18T16:55:24.772Z,80.05
2022-12-18T16:57:52.596Z,80.10
2022-12-18T17:00:20.667Z,79.89
2022-12-18T17:02:49.809Z,79.54
2022-12-18T17:05:17.704Z,80.44
2022-12-18T17:07:45.364Z,80.00
2022-12-18T17:10:13.132Z,79.91
2022-12-18T17:12:40.795Z,80.67
2022-12-18T17:15:10.082Z,80.01
2022-12-18T17:17:37.749Z,78.78
2022-12-18T17:20:07.306Z,79.82
2022-12-18T17:22:34.949Z,79.45
2022-12-18T17:25:02.651Z,79.58
2022-12-18T17:27:30.260Z,80.13
2022-12-18T17:29:58.182Z,80.26
2022-12-18T17:32:25.881Z,80.38
2022-12-18T17:34:53.501Z,81.11
2022-12-18T17:37:22.487Z,80.50
2022-12-18T17:39:50.195Z,78.94
2022-12-18T17:42:17.846Z,80.50
2022-12-18T17:44:45.993Z,80.58
2022-12-18T17:47:14.158Z,80.04
2022-12-18T17:49:41.895Z,78.38
2022-12-18T17:52:09.675Z,79.35
2022-12-18T17:54:41.327Z,80.05
2022-12-18T17:57:09.072Z,77.56
2022-12-18T17:59:36.789Z,78.33
2022-12-18T18:02:04.512Z,78.96
2022-12-18T18:04:32.469Z,80.63
2022-12-18T18:07:00.164Z,81.19
2022-12-18T18:09:27.947Z,77.88
2022-12-18T18:12:14.527Z,79.21
2022-12-18T18:14:42.200Z,78.23
2022-12-18T18:17:09.892Z,79.41
2022-12-18T18:19:37.592Z,79.47
2022-12-18T18:22:07.045Z,78.86
2022-12-18T18:24:34.820Z,79.27
2022-12-18T18:27:03.908Z,80.01
2022-12-18T18:29:31.571Z,79.07
2022-12-18T18:31:59.544Z,79.64
2022-12-18T18:34:29.639Z,79.87
2022-12-18T18:36:57.312Z,79.79
2022-12-18T18:39:25.325Z,79.15
2022-12-18T18:41:53.097Z,78.85
2022-12-18T18:44:25.739Z,79.43
2022-12-18T18:46:55.095Z,79.86
2022-12-18T18:49:24.121Z,79.52
2022-12-18T18:51:52.052Z,79.29
2022-12-18T18:54:19.644Z,79.32
2022-12-18T18:59:36.552Z,77.65
2022-12-18T19:02:05.065Z,78.24
2022-12-18T19:04:33.531Z,78.21
2022-12-18T19:07:01.291Z,78.70
2022-12-18T19:09:29.410Z,80.16
2022-12-18T19:12:14.780Z,80.05
2022-12-18T19:14:43.847Z,78.86
2022-12-18T19:17:11.611Z,79.57
2022-12-18T19:19:39.971Z,78.96
2022-12-18T19:22:09.327Z,79.41
2022-12-18T19:24:37.100Z,78.19
2022-12-18T19:27:04.945Z,77.56
2022-12-18T19:29:33.056Z,78.92
2022-12-18T19:32:02.539Z,78.08
2022-12-18T19:34:30.289Z,79.57
2022-12-18T19:36:59.755Z,77.89
2022-12-18T19:39:28.044Z,78.30
2022-12-18T19:41:55.853Z,79.21
2022-12-18T19:44:23.541Z,78.50
2022-12-18T19:46:51.782Z,77.03
2022-12-18T19:49:20.813Z,78.31
2022-12-18T19:51:50.185Z,78.08
2022-12-18T19:54:18.250Z,76.82
2022-12-18T19:56:46.732Z,78.79
2022-12-18T19:59:14.991Z,79.12
2022-12-18T20:01:43.203Z,80.11
2022-12-18T20:04:11.136Z,80.07
2022-12-18T20:06:49.341Z,79.68
2022-12-18T20:09:17.454Z,80.60
2022-12-18T20:11:45.515Z,81.29
2022-12-18T20:14:16.869Z,81.58
2022-12-18T20:16:51.545Z,82.43
2022-12-18T20:19:19.543Z,81.64
2022-12-18T20:21:48.663Z,82.08
2022-12-18T20:24:16.320Z,82.94
2022-12-18T20:26:44.008Z,83.13
2022-12-18T20:29:11.696Z,83.17
2022-12-18T20:31:39.367Z,84.06
2022-12-18T20:34:07.223Z,84.09
2022-12-18T20:36:37.535Z,84.97
2022-12-18T20:39:08.922Z,84.73
2022-12-18T20:41:39.135Z,84.85
2022-12-18T20:44:17.742Z,85.07
2022-12-18T20:46:51.460Z,85.36
2022-12-18T20:49:19.128Z,85.89
2022-12-18T20:51:46.767Z,85.81
2022-12-18T20:54:15.784Z,86.42
2022-12-18T20:56:43.409Z,86.91
2022-12-18T20:59:11.323Z,87.23
2022-12-18T21:01:47.564Z,87.14
2022-12-18T21:04:18.703Z,87.63
2022-12-18T21:06:51.443Z,87.65
2022-12-18T21:09:22.271Z,87.98
2022-12-18T21:12:07.365Z,88.33
2022-12-18T21:14:35.293Z,88.43
2022-12-18T21:17:03.028Z,88.98
2022-12-18T21:19:30.783Z,88.81
2022-12-18T21:21:59.183Z,88.36
2022-12-18T21:24:28.227Z,88.42
2022-12-18T21:27:00.467Z,88.85
2022-12-18T21:29:28.100Z,89.20
2022-12-18T21:31:55.941Z,89.47
2022-12-18T21:34:26.755Z,88.58
2022-12-18T21:36:55.730Z,88.84
2022-12-18T21:39:23.567Z,90.18
2022-12-18T21:42:10.872Z,89.97
2022-12-18T21:44:42.011Z,90.25
2022-12-18T21:47:21.742Z,90.43
2022-12-18T21:49:51.094Z,90.24
2022-12-18T21:52:18.788Z,90.65
2022-12-18T21:54:46.457Z,90.85
2022-12-18T21:57:15.536Z,90.91
2022-12-18T21:59:44.278Z,90.82
2022-12-18T22:02:13.845Z,91.04
2022-12-18T22:04:41.989Z,90.88
2022-12-18T22:07:09.862Z,90.73
2022-12-18T22:09:38.951Z,90.93
2022-12-18T22:12:08.968Z,91.57
2022-12-18T22:14:38.319Z,90.28
2022-12-18T22:17:06.016Z,92.44
2022-12-18T22:19:41.089Z,91.41
2022-12-18T22:22:10.464Z,90.27
2022-12-18T22:24:38.101Z,92.23
2022-12-18T22:27:05.789Z,92.66
2022-12-18T22:29:52.825Z,90.69
2022-12-18T22:32:30.713Z,91.83
2022-12-18T22:35:05.248Z,93.10
2022-12-18T22:37:34.779Z,92.06
2022-12-18T22:40:03.058Z,91.82
2022-12-18T22:42:31.137Z,90.76
2022-12-18T22:45:00.332Z,91.06
2022-12-18T22:47:30.588Z,91.46
2022-12-18T22:49:58.691Z,91.62
2022-12-18T22:52:26.377Z,92.52
2022-12-18T22:54:54.439Z,92.45
2022-12-18T22:57:22.612Z,93.24
2022-12-18T22:59:50.555Z,92.05
2022-12-18T23:02:18.883Z,92.31
2022-12-18T23:04:48.570Z,92.45
2022-12-18T23:07:16.593Z,93.06
2022-12-18T23:09:44.836Z,93.76
2022-12-18T23:12:17.095Z,92.20
2022-12-18T23:14:45.282Z,92.44
2022-12-18T23:17:12.928Z,92.43
2022-12-18T23:19:45.509Z,93.09
2022-12-18T23:22:17.757Z,91.86
2022-12-18T23:24:45.435Z,93.28
2022-12-18T23:27:13.110Z,93.37
2022-12-18T23:29:40.778Z,93.12
2022-12-18T23:32:08.973Z,92.96
2022-12-18T23:34:36.570Z,94.11
2022-12-18T23:37:04.593Z,93.75
2022-12-18T23:39:33.614Z,94.63
2022-12-18T23:42:01.744Z,93.91
2022-12-18T23:44:29.541Z,93.77
2022-12-18T23:46:57.191Z,93.88
2022-12-18T23:49:24.944Z,94.29
2022-12-18T23:51:54.845Z,94.93
2022-12-18T23:54:27.275Z,95.30
2022-12-18T23:57:02.639Z,95.05
2022-12-18T23:59:30.291Z,95.06
